Artesia ASC

2021-10-22 04:35:00

  • imperial
Date Time Air Temperature Relative Humidity Dewpoint Windchill Heat Index Wind Speed Wind Dir. Rain Solar Radiation Soil Temperature
2m 2m 3m 3m 10cm
US/Mountain F % F F F MPH deg in MJ/m^2 F
max avg avg
2021-10-21 04:45:00 45.3 60.5 32.4 45.3 45.3 1.7 2.1 1.5 316.8 308.4 0.00 0.0000000 62.7
2021-10-21 04:50:00 45.4 60.3 32.5 45.4 45.4 2.6 2.8 2.1 333.0 311.0 0.00 0.0000000 62.7
2021-10-21 04:55:00 45.1 60.0 32.0 45.1 45.1 2.2 3.7 2.8 335.6 344.0 0.00 0.0000000 62.7
2021-10-21 05:00:00 44.5 60.6 31.7 44.5 44.5 3.0 3.8 3.0 319.4 330.6 0.00 0.0000000 62.7
2021-10-21 05:05:00 44.3 61.3 31.9 42.5 44.3 3.8 4.0 3.4 292.0 313.2 0.00 0.0000000 62.6
2021-10-21 05:10:00 43.9 61.9 31.7 41.8 43.9 4.0 4.4 4.0 304.2 309.3 0.00 0.0000000 62.6
2021-10-21 05:15:00 43.6 64.7 32.5 39.9 43.6 6.2 6.3 4.8 345.6 329.7 0.00 0.0000000 62.6
2021-10-21 05:20:00 43.8 63.2 32.1 41.0 43.8 4.9 7.2 5.5 344.1 337.1 0.00 0.0000000 62.5
2021-10-21 05:25:00 43.5 62.5 31.5 40.6 43.5 4.9 7.6 5.3 346.2 338.7 0.00 0.0000000 62.5
2021-10-21 05:30:00 43.6 61.5 31.3 40.5 43.6 5.3 5.8 5.0 326.0 335.4 0.00 0.0000000 62.5
2021-10-21 05:35:00 42.9 61.4 30.6 40.5 42.9 4.2 5.3 4.6 339.5 332.4 0.00 0.0000000 62.4
2021-10-21 05:40:00 43.2 59.1 29.9 41.6 43.2 3.3 4.6 3.7 330.3 329.0 0.00 0.0000000 62.4
2021-10-21 05:45:00 43.0 59.8 30.0 43.0 43.0 1.9 3.5 2.9 297.1 317.2 0.00 0.0000000 62.4
2021-10-21 05:50:00 42.9 59.8 29.9 42.9 42.9 2.1 3.3 2.4 307.0 272.8 0.00 0.0000000 62.3
2021-10-21 05:55:00 43.3 57.1 29.1 40.9 43.3 4.2 4.2 2.9 283.9 319.8 0.00 0.0000000 62.3
2021-10-21 06:00:00 42.3 60.1 29.4 42.3 42.3 2.8 4.2 2.2 18.2 318.5 0.00 0.0000000 62.3
2021-10-21 06:05:00 43.4 55.9 28.7 43.4 43.4 2.6 3.7 2.8 34.9 42.3 0.00 0.0000000 62.2
2021-10-21 06:10:00 43.1 57.4 29.1 43.1 43.1 2.1 3.5 2.5 14.9 6.3 0.00 0.0000000 62.2
2021-10-21 06:15:00 43.1 56.7 28.7 43.1 43.1 2.6 3.1 2.4 333.7 344.0 0.00 0.0000000 62.2
2021-10-21 06:20:00 42.8 57.4 28.8 42.8 42.8 1.9 2.6 2.2 349.6 307.0 0.00 0.0000000 62.2
2021-10-21 06:25:00 42.8 57.2 28.7 42.8 42.8 1.7 2.4 2.0 350.2 23.5 0.00 0.0000000 62.1
2021-10-21 06:30:00 42.2 58.2 28.6 40.5 42.2 3.3 3.5 2.8 331.5 332.2 0.00 0.0000000 62.1
2021-10-21 06:35:00 42.3 57.5 28.4 42.3 42.3 2.8 3.7 3.3 302.7 317.9 0.00 0.0000000 62.0
2021-10-21 06:40:00 42.2 57.0 28.0 39.8 42.2 4.0 4.2 3.5 327.6 317.6 0.00 0.0000000 62.0
2021-10-21 06:45:00 43.6 53.3 27.7 41.3 43.6 4.2 4.7 4.2 341.8 337.4 0.00 0.0000000 62.0
2021-10-21 06:50:00 44.2 52.4 27.9 44.2 44.2 2.4 4.7 3.3 18.0 2.3 0.00 0.0000000 62.0
2021-10-21 06:55:00 44.2 53.1 28.2 42.1 44.2 4.0 4.2 2.8 344.3 6.2 0.00 0.0010000 61.9
2021-10-21 07:00:00 44.5 51.8 27.8 41.8 44.5 4.9 5.8 4.7 329.5 338.9 0.00 0.0020000 61.9
2021-10-21 07:05:00 45.3 50.9 28.2 42.5 45.3 5.3 6.3 4.7 342.1 338.5 0.00 0.0030000 61.8
2021-10-21 07:10:00 45.5 50.7 28.3 44.1 45.5 3.5 4.9 3.8 334.9 337.4 0.00 0.0050000 61.8
2021-10-21 07:15:00 43.9 52.6 27.7 43.9 43.9 2.4 3.3 2.7 292.7 308.9 0.00 0.0080000 61.8
2021-10-21 07:20:00 43.1 54.5 27.8 40.8 43.1 4.0 4.0 2.9 330.1 320.1 0.00 0.0100000 61.8
2021-10-21 07:25:00 42.4 55.6 27.6 40.0 42.4 4.0 4.7 4.2 338.2 333.4 0.00 0.0170000 61.7
2021-10-21 07:30:00 42.3 56.1 27.8 40.1 42.3 3.8 4.9 4.0 336.8 334.0 0.00 0.0360000 61.7
2021-10-21 07:35:00 42.6 56.7 28.3 39.7 42.6 4.7 4.9 4.3 340.8 337.1 0.00 0.0470000 61.6
2021-10-21 07:40:00 42.4 59.1 29.1 39.6 42.4 4.6 5.3 4.5 318.4 327.7 0.00 0.0660000 61.6
2021-10-21 07:45:00 42.6 58.1 28.9 40.8 42.6 3.5 4.7 3.7 322.9 320.6 0.00 0.0850000 61.6
2021-10-21 07:50:00 44.1 53.3 28.2 41.2 44.1 5.1 6.2 4.5 338.4 334.9 0.00 0.0680000 61.6
2021-10-21 07:55:00 44.8 54.3 29.3 43.2 44.8 3.7 5.6 4.0 338.8 332.0 0.00 0.1230000 61.5
2021-10-21 08:00:00 46.0 51.3 29.0 44.8 46.0 3.3 4.0 3.5 330.3 340.9 0.00 0.1380000 61.5
2021-10-21 08:05:00 47.4 50.2 29.7 47.4 47.4 1.3 3.0 2.0 323.8 345.1 0.00 0.1520000 61.5
2021-10-21 08:10:00 48.6 46.4 28.9 47.8 48.6 3.3 4.2 2.8 26.6 6.8 0.00 0.1680000 61.4
2021-10-21 08:15:00 49.1 46.6 29.5 47.5 49.1 4.4 4.4 3.4 8.5 357.5 0.00 0.1840000 61.4
2021-10-21 08:20:00 49.7 46.9 30.2 49.0 49.7 3.3 4.2 3.1 10.9 12.9 0.00 0.2000000 61.4
2021-10-21 08:25:00 50.5 46.7 30.9 50.5 50.5 3.7 3.8 3.1 324.4 11.5 0.00 0.2150000 61.4
2021-10-21 08:30:00 50.6 45.7 30.4 50.6 50.6 3.0 3.8 2.9 7.6 18.4 0.00 0.2300000 61.3
2021-10-21 08:35:00 51.8 46.4 31.9 51.8 51.8 1.7 3.0 2.4 35.8 2.3 0.00 0.2460000 61.3
2021-10-21 08:40:00 54.0 44.0 32.6 54.0 54.0 1.2 2.2 1.7 254.9 326.7 0.00 0.2610000 61.3
2021-10-21 08:45:00 53.1 44.4 32.0 53.1 53.1 0.8 1.7 1.4 2.9 288.9 0.00 0.2770000 61.3
2021-10-21 08:50:00 53.5 41.0 30.4 53.5 53.5 2.6 3.0 1.6 345.6 327.9 0.00 0.2930000 61.3
2021-10-21 08:55:00 54.7 43.2 32.8 54.7 54.7 2.8 4.0 2.9 9.0 338.0 0.00 0.3090000 61.3
2021-10-21 09:00:00 55.7 36.8 29.7 55.7 55.7 4.2 4.6 3.3 43.5 21.5 0.00 0.3250000 61.2
2021-10-21 09:05:00 55.8 36.4 29.5 55.8 55.8 4.7 5.6 3.7 334.6 5.7 0.00 0.3410000 61.2
2021-10-21 09:10:00 56.1 38.7 31.2 56.1 56.1 3.3 5.1 3.5 326.2 344.7 0.00 0.3550000 61.2
2021-10-21 09:15:00 59.4 38.8 34.3 59.4 59.4 4.0 5.6 3.7 42.1 16.0 0.00 0.3700000 61.2
2021-10-21 09:20:00 56.6 36.0 29.9 56.6 56.6 4.6 5.1 3.6 50.4 46.5 0.00 0.3840000 61.2
2021-10-21 09:25:00 59.6 38.1 34.0 59.6 59.6 2.8 4.6 3.7 59.2 13.2 0.00 0.3990000 61.2
2021-10-21 09:30:00 58.0 37.4 32.2 58.0 58.0 4.4 5.6 3.7 342.9 8.8 0.00 0.4130000 61.2
2021-10-21 09:35:00 58.3 32.5 28.9 58.3 58.3 3.1 5.3 3.6 35.6 37.6 0.00 0.4280000 61.2
2021-10-21 09:40:00 58.6 35.5 31.3 58.6 58.6 4.9 7.1 4.2 67.0 38.1 0.00 0.4410000 61.2
2021-10-21 09:45:00 56.7 32.9 27.8 56.7 56.7 6.3 6.9 4.7 35.8 48.0 0.00 0.4550000 61.2
2021-10-21 09:50:00 59.1 31.9 29.1 59.1 59.1 4.7 6.0 4.5 55.8 44.2 0.00 0.4680000 61.2
2021-10-21 09:55:00 60.6 33.8 31.9 60.6 60.6 4.6 5.8 3.8 24.1 33.0 0.00 0.4810000 61.2
2021-10-21 10:00:00 60.0 33.3 30.9 60.0 60.0 3.8 7.1 5.0 25.6 48.7 0.00 0.4940000 61.2
2021-10-21 10:05:00 61.8 28.8 29.1 61.8 61.8 4.2 6.2 4.4 7.2 21.6 0.00 0.5050000 61.2
2021-10-21 10:10:00 62.0 26.6 27.2 62.0 62.0 3.7 6.3 4.5 37.9 17.7 0.00 0.5180000 61.2
2021-10-21 10:15:00 64.4 29.6 31.9 64.4 64.4 6.2 7.4 4.6 9.6 9.5 0.00 0.5300000 61.3
2021-10-21 10:20:00 62.4 29.0 29.7 62.4 62.4 5.1 7.4 5.5 43.6 17.7 0.00 0.5390000 61.3
2021-10-21 10:25:00 63.1 32.2 33.0 63.1 63.1 3.7 8.0 4.9 341.3 358.7 0.00 0.5510000 61.3
2021-10-21 10:30:00 64.0 27.5 29.8 64.0 64.0 6.0 6.7 4.4 15.7 23.4 0.00 0.5620000 61.3
2021-10-21 10:35:00 64.2 25.7 28.2 64.2 64.2 6.0 7.4 4.5 334.0 18.6 0.00 0.5720000 61.3
2021-10-21 10:40:00 69.5 28.5 35.4 69.5 69.5 5.1 6.2 3.6 12.7 22.3 0.00 0.5820000 61.3
2021-10-21 10:45:00 69.0 31.3 37.3 69.0 69.0 4.6 7.6 4.5 30.6 23.8 0.00 0.5920000 61.4
2021-10-21 10:50:00 63.1 22.4 24.0 63.1 63.1 5.6 6.9 4.1 19.5 0.7 0.00 0.6010000 61.4
2021-10-21 10:55:00 65.7 26.9 30.7 65.7 65.7 3.5 6.5 4.1 63.3 13.7 0.00 0.6100000 61.4
2021-10-21 11:00:00 65.6 26.6 30.4 65.6 65.6 4.9 5.3 3.9 335.9 32.5 0.00 0.6180000 61.4
2021-10-21 11:05:00 65.9 27.2 31.2 65.9 65.9 1.9 6.9 4.0 9.1 14.3 0.00 0.6270000 61.5
2021-10-21 11:10:00 72.5 31.3 40.3 72.5 72.5 5.1 5.1 3.3 29.5 23.2 0.00 0.6340000 61.5
2021-10-21 11:15:00 72.6 30.3 39.7 72.6 72.6 4.6 5.5 3.7 347.0 331.4 0.00 0.4950000 61.6
2021-10-21 11:20:00 67.9 23.6 29.3 67.9 67.9 3.7 4.9 3.1 22.1 351.2 0.00 0.6490000 61.6
2021-10-21 11:25:00 69.8 27.7 34.9 69.8 69.8 3.0 3.7 2.3 322.9 350.3 0.00 0.6560000 61.6
2021-10-21 11:30:00 70.9 22.4 30.6 70.9 70.9 3.7 4.7 3.0 8.5 23.8 0.00 0.6620000 61.6
2021-10-21 11:35:00 70.9 23.7 32.0 70.9 70.9 4.7 6.2 4.0 4.0 21.0 0.00 0.6670000 61.7
2021-10-21 11:40:00 70.7 25.7 33.8 70.7 70.7 2.6 4.2 2.7 320.6 314.5 0.00 0.6730000 61.7
2021-10-21 11:45:00 72.6 21.6 31.1 72.6 72.6 2.2 4.0 2.7 235.4 339.9 0.00 0.6770000 61.8
2021-10-21 11:50:00 72.5 23.2 32.8 72.5 72.5 2.4 4.0 2.6 117.7 98.9 0.00 0.6820000 61.8
2021-10-21 11:55:00 73.2 26.2 36.5 73.2 73.2 3.7 4.2 2.8 31.7 89.0 0.00 0.6880000 61.9
2021-10-21 12:00:00 73.5 16.5 25.3 73.5 73.5 1.9 4.7 2.6 8.8 68.4 0.00 0.6920000 61.9
2021-10-21 12:05:00 73.8 16.3 25.2 73.8 73.8 2.6 4.9 3.0 75.5 20.8 0.00 0.6940000 62.0
2021-10-21 12:10:00 74.2 21.4 32.2 74.2 74.2 3.3 4.4 3.0 178.1 130.5 0.00 0.6970000 62.0
2021-10-21 12:15:00 73.6 17.0 26.1 73.6 73.6 3.5 5.5 2.4 4.0 305.3 0.00 0.7000000 62.1
2021-10-21 12:20:00 74.1 25.5 36.5 74.1 74.1 2.2 5.3 3.4 288.1 339.8 0.00 0.7050000 62.1
2021-10-21 12:25:00 74.6 22.0 33.2 74.6 74.6 2.4 4.6 3.0 67.9 59.1 0.00 0.7040000 62.2
2021-10-21 12:30:00 74.6 22.3 33.6 74.6 74.6 3.3 6.0 4.1 53.8 84.4 0.00 0.7040000 62.2
2021-10-21 12:35:00 76.0 29.3 41.8 76.0 76.0 3.5 4.6 3.3 295.6 295.5 0.00 0.7050000 62.3
2021-10-21 12:40:00 74.9 16.2 25.9 74.9 74.9 4.4 4.6 3.2 154.1 166.8 0.00 0.7070000 62.4
2021-10-21 12:45:00 71.5 20.1 28.4 71.5 71.5 4.2 5.1 3.7 56.6 121.2 0.00 0.7050000 62.4
2021-10-21 12:50:00 75.3 22.8 34.7 75.3 75.3 3.8 6.3 3.8 91.2 120.3 0.00 0.7040000 62.5
2021-10-21 12:55:00 77.4 21.9 35.5 77.4 77.4 3.5 6.5 4.0 84.6 87.7 0.00 0.7020000 62.5
2021-10-21 13:00:00 79.4 26.7 42.2 79.4 79.4 2.8 6.7 4.8 172.0 115.5 0.00 0.6990000 62.6
2021-10-21 13:05:00 70.4 22.1 29.8 70.4 70.4 3.8 6.3 4.0 117.5 122.2 0.00 0.7000000 62.7
2021-10-21 13:10:00 75.5 17.1 27.8 75.5 75.5 3.8 6.2 3.9 66.4 81.2 0.00 0.6960000 62.8
2021-10-21 13:15:00 76.7 19.2 31.7 76.7 76.7 3.5 5.5 3.5 102.1 76.0 0.00 0.6950000 62.9
2021-10-21 13:20:00 71.3 13.4 18.6 71.3 71.3 3.7 4.2 2.9 92.2 122.7 0.00 0.6920000 62.9
2021-10-21 13:25:00 80.6 24.9 41.5 80.6 80.6 3.1 3.8 2.7 105.3 92.2 0.00 0.6880000 63.0
2021-10-21 13:30:00 78.9 15.4 28.0 78.9 78.9 2.1 3.0 1.9 77.8 68.1 0.00 0.6820000 63.1
2021-10-21 13:35:00 80.0 24.1 40.1 80.0 80.0 4.6 6.7 4.6 95.0 102.1 0.00 0.6810000 63.2
2021-10-21 13:40:00 81.4 19.7 36.1 81.4 81.4 2.4 5.1 2.8 112.0 86.3 0.00 0.6770000 63.3
2021-10-21 13:45:00 76.6 18.7 30.9 76.6 76.6 3.3 5.6 4.2 58.7 119.1 0.00 0.6700000 63.3
2021-10-21 13:50:00 72.8 20.1 29.4 72.8 72.8 6.2 6.2 4.3 118.8 89.4 0.00 0.6650000 63.4
2021-10-21 13:55:00 78.0 14.6 25.9 78.0 78.0 4.0 7.8 5.1 109.0 102.2 0.00 0.6580000 63.5
2021-10-21 14:00:00 81.1 19.9 36.1 81.1 81.1 4.7 5.8 3.9 109.8 78.4 0.00 0.6510000 63.6
2021-10-21 14:05:00 79.6 18.4 32.9 79.6 79.6 7.1 7.6 5.1 98.8 105.6 0.00 0.6450000 63.7
2021-10-21 14:10:00 79.5 17.9 32.2 79.5 79.5 4.4 7.8 5.6 89.0 107.7 0.00 0.6390000 63.8
2021-10-21 14:15:00 84.1 21.4 40.5 84.1 84.1 6.7 8.5 5.4 105.0 100.3 0.00 0.6300000 63.9
2021-10-21 14:20:00 80.2 15.7 29.4 80.2 80.2 4.0 7.2 5.4 72.3 105.2 0.00 0.6230000 64.0
2021-10-21 14:25:00 84.7 19.3 38.2 84.7 84.7 4.4 6.3 4.7 125.9 101.2 0.00 0.6170000 64.1
2021-10-21 14:30:00 84.2 19.7 38.4 84.2 84.2 3.8 11.7 6.2 168.4 124.8 0.00 0.6080000 64.1
2021-10-21 14:35:00 81.9 10.6 21.2 81.9 81.9 6.5 7.6 6.2 109.0 124.8 0.00 0.5970000 64.2
2021-10-21 14:40:00 81.6 16.1 31.3 81.6 81.6 8.7 8.7 5.4 120.4 110.4 0.00 0.5900000 64.3
2021-10-21 14:45:00 77.2 11.5 19.6 77.2 77.2 5.5 9.2 6.7 153.9 134.8 0.00 0.5810000 64.4
2021-10-21 14:50:00 78.4 14.8 26.5 78.4 78.4 8.1 8.1 5.7 113.9 134.2 0.00 0.5710000 64.5
2021-10-21 14:55:00 78.4 15.9 28.4 78.4 78.4 6.3 9.4 6.8 115.1 116.8 0.00 0.5600000 64.6
2021-10-21 15:00:00 83.6 15.1 31.2 83.6 83.6 7.1 9.7 6.4 131.5 123.2 0.00 0.5490000 64.7
2021-10-21 15:05:00 85.9 17.9 37.3 85.9 85.9 5.5 8.8 6.1 158.8 129.6 0.00 0.5370000 64.8
2021-10-21 15:10:00 81.1 17.5 32.8 81.1 81.1 9.0 10.8 7.4 145.4 162.7 0.00 0.5270000 64.9
2021-10-21 15:15:00 83.5 14.6 30.3 83.5 83.5 6.9 11.3 8.8 111.1 135.9 0.00 0.5140000 65.0
2021-10-21 15:20:00 82.0 13.6 27.4 82.0 82.0 5.3 10.6 6.2 161.9 142.4 0.00 0.5020000 65.1
2021-10-21 15:25:00 84.2 13.8 29.6 84.2 84.2 8.0 9.4 6.7 140.2 153.1 0.00 0.4890000 65.2
2021-10-21 15:30:00 84.2 16.5 33.9 84.2 84.2 10.3 13.1 8.8 110.4 143.0 0.00 0.4770000 65.3
2021-10-21 15:35:00 85.8 16.1 34.5 85.8 85.8 8.3 11.0 8.3 124.5 143.4 0.00 0.4640000 65.3
2021-10-21 15:40:00 84.5 17.6 35.8 84.5 84.5 9.0 11.5 7.6 113.4 130.5 0.00 0.4510000 65.4
2021-10-21 15:45:00 84.0 11.7 25.4 84.0 84.0 8.3 13.0 9.2 148.4 135.2 0.00 0.4370000 65.5
2021-10-21 15:50:00 81.6 15.7 30.6 81.6 81.6 7.4 13.1 8.5 163.8 147.7 0.00 0.4220000 65.6
2021-10-21 15:55:00 83.7 10.0 21.3 83.7 83.7 9.4 11.2 9.1 185.7 143.5 0.00 0.4080000 65.7
2021-10-21 16:00:00 81.4 17.3 32.8 81.4 81.4 6.9 10.3 7.7 140.7 140.9 0.00 0.3930000 65.7
2021-10-21 16:05:00 84.3 15.0 31.7 84.3 84.3 10.8 12.2 9.0 129.8 137.9 0.00 0.3780000 65.8
2021-10-21 16:10:00 83.4 13.1 27.5 83.4 83.4 7.1 11.5 9.5 137.0 129.6 0.00 0.3630000 65.9
2021-10-21 16:15:00 81.4 14.3 28.0 81.4 81.4 7.8 10.8 8.2 135.5 134.9 0.00 0.3480000 65.9
2021-10-21 16:20:00 82.8 15.1 30.7 82.8 82.8 8.7 12.2 9.1 130.6 131.7 0.00 0.3330000 66.0
2021-10-21 16:25:00 83.8 16.9 34.2 83.8 83.8 9.9 10.8 8.4 120.9 127.9 0.00 0.3170000 66.1
2021-10-21 16:30:00 84.1 14.1 29.9 84.1 84.1 7.6 11.0 8.8 126.6 128.6 0.00 0.3020000 66.1
2021-10-21 16:35:00 84.0 17.3 34.9 84.0 84.0 8.0 10.3 8.5 121.3 131.3 0.00 0.2860000 66.2
2021-10-21 16:40:00 82.3 17.2 33.4 82.3 82.3 8.0 9.4 7.9 128.2 125.6 0.00 0.2700000 66.2
2021-10-21 16:45:00 82.4 16.1 31.9 82.4 82.4 7.4 9.9 7.9 132.7 127.9 0.00 0.2540000 66.3
2021-10-21 16:50:00 82.4 16.5 32.5 82.4 82.4 7.2 10.5 8.5 129.1 129.5 0.00 0.2380000 66.3
2021-10-21 16:55:00 81.6 18.3 34.4 81.6 81.6 8.3 9.2 7.5 123.7 129.5 0.00 0.2230000 66.3
2021-10-21 17:00:00 82.5 17.3 33.7 82.5 82.5 9.2 10.5 8.3 136.8 134.4 0.00 0.2080000 66.4
2021-10-21 17:05:00 82.4 15.5 30.9 82.4 82.4 7.1 10.1 7.4 155.9 138.7 0.00 0.1910000 66.5
2021-10-21 17:10:00 82.8 17.1 33.7 82.8 82.8 7.4 9.9 7.1 164.0 144.4 0.00 0.1760000 66.5
2021-10-21 17:15:00 82.2 17.4 33.6 82.2 82.2 7.6 10.8 8.6 140.3 151.6 0.00 0.1600000 66.5
2021-10-21 17:20:00 82.2 18.5 35.2 82.2 82.2 6.7 11.3 7.6 150.8 148.8 0.00 0.1440000 66.6
2021-10-21 17:25:00 81.5 19.4 35.8 81.5 81.5 8.1 8.1 6.5 163.3 159.9 0.00 0.1290000 66.6
2021-10-21 17:30:00 81.1 20.7 37.1 81.1 81.1 8.5 10.1 7.7 153.8 159.0 0.00 0.1130000 66.6
2021-10-21 17:35:00 80.9 22.0 38.5 80.9 80.9 8.0 9.4 7.9 174.2 159.2 0.00 0.0980000 66.7
2021-10-21 17:40:00 79.9 24.3 40.1 79.9 79.9 8.1 10.3 7.9 153.9 158.7 0.00 0.0800000 66.7
2021-10-21 17:45:00 79.7 25.6 41.3 79.7 79.7 5.8 9.2 7.5 168.5 161.6 0.00 0.0630000 66.7
2021-10-21 17:50:00 79.0 25.7 40.8 79.0 79.0 8.1 9.0 7.1 161.1 160.8 0.00 0.0470000 66.8
2021-10-21 17:55:00 78.1 26.0 40.4 78.1 78.1 6.5 8.1 6.9 147.5 157.2 0.00 0.0340000 66.8
2021-10-21 18:00:00 77.7 27.0 41.1 77.7 77.7 5.5 9.4 7.0 154.9 158.7 0.00 0.0230000 66.8
2021-10-21 18:05:00 76.9 28.0 41.3 76.9 76.9 5.3 7.2 5.7 172.6 162.8 0.00 0.0150000 66.8
2021-10-21 18:10:00 75.7 29.5 41.6 75.7 75.7 6.0 6.2 5.0 167.7 160.9 0.00 0.0100000 66.8
2021-10-21 18:15:00 74.8 31.1 42.2 74.8 74.8 3.8 5.6 4.5 164.0 160.8 0.00 0.0060000 66.8
2021-10-21 18:20:00 74.1 31.5 42.0 74.1 74.1 4.0 4.7 4.0 159.8 153.8 0.00 0.0040000 66.9
2021-10-21 18:25:00 73.8 32.6 42.6 73.8 73.8 4.0 4.7 4.1 160.0 155.2 0.00 0.0020000 66.9
2021-10-21 18:30:00 73.0 32.9 42.1 73.0 73.0 5.1 5.1 3.9 143.3 150.5 0.00 0.0010000 66.9
2021-10-21 18:35:00 72.7 33.4 42.3 72.7 72.7 3.5 4.7 3.4 155.7 154.0 0.00 0.0000000 66.9
2021-10-21 18:40:00 72.2 33.3 41.7 72.2 72.2 3.1 4.7 3.5 145.6 150.8 0.00 0.0000000 66.9
2021-10-21 18:45:00 71.5 34.3 41.9 71.5 71.5 3.5 3.8 3.3 146.3 152.2 0.00 0.0000000 66.9
2021-10-21 18:50:00 71.0 34.4 41.5 71.0 71.0 3.7 4.2 3.6 145.9 148.6 0.00 0.0000000 66.9
2021-10-21 18:55:00 70.8 34.5 41.4 70.8 70.8 3.3 4.0 3.7 161.2 148.0 0.00 0.0000000 66.9
2021-10-21 19:00:00 70.3 35.6 41.8 70.3 70.3 3.3 3.8 3.3 148.3 146.9 0.00 0.0000000 66.9
2021-10-21 19:05:00 69.6 36.9 42.2 69.6 69.6 3.0 3.5 3.2 169.7 155.1 0.00 0.0000000 66.9
2021-10-21 19:10:00 69.3 37.6 42.3 69.3 69.3 2.8 3.3 2.9 169.4 162.8 0.00 0.0000000 66.9
2021-10-21 19:15:00 69.2 39.2 43.3 69.2 69.2 3.0 3.1 3.0 174.3 179.2 0.00 0.0000000 66.9
2021-10-21 19:20:00 68.7 40.0 43.4 68.7 68.7 2.8 3.5 3.0 159.8 162.4 0.00 0.0000000 66.9
2021-10-21 19:25:00 68.0 41.0 43.4 68.0 68.0 2.2 2.8 2.5 158.8 161.3 0.00 0.0000000 66.9
2021-10-21 19:30:00 68.0 41.2 43.6 68.0 68.0 1.5 2.4 1.9 154.5 159.4 0.00 0.0000000 66.9
2021-10-21 19:35:00 67.8 41.7 43.7 67.8 67.8 2.1 2.1 1.6 175.7 163.8 0.00 0.0000000 66.9
2021-10-21 19:40:00 68.1 42.1 44.2 68.1 68.1 2.1 2.2 2.0 181.8 175.1 0.00 0.0000000 66.9
2021-10-21 19:45:00 67.9 42.4 44.2 67.9 67.9 1.7 1.9 1.7 202.9 192.1 0.00 0.0000000 66.8
2021-10-21 19:50:00 67.3 44.6 45.0 67.3 67.3 2.8 2.8 2.1 189.0 198.6 0.00 0.0000000 66.8
2021-10-21 19:55:00 67.0 43.8 44.2 67.0 67.0 3.1 3.5 3.2 166.9 172.4 0.00 0.0000000 66.8
2021-10-21 20:00:00 66.1 44.8 44.1 66.1 66.1 3.0 3.5 3.0 183.7 179.1 0.00 0.0000000 66.8
2021-10-21 20:05:00 66.1 45.7 44.6 66.1 66.1 3.5 3.5 3.1 193.5 190.0 0.00 0.0000000 66.7
2021-10-21 20:10:00 66.4 45.9 44.9 66.4 66.4 3.0 4.0 3.5 196.9 192.1 0.00 0.0000000 66.7
2021-10-21 20:15:00 66.3 46.5 45.1 66.3 66.3 3.5 3.8 3.4 185.5 190.2 0.00 0.0000000 66.7
2021-10-21 20:20:00 65.6 47.2 44.9 65.6 65.6 3.1 3.5 3.3 176.3 170.5 0.00 0.0000000 66.7
2021-10-21 20:25:00 64.8 49.3 45.3 64.8 64.8 2.2 3.1 2.5 201.4 176.4 0.00 0.0000000 66.6
2021-10-21 20:30:00 65.0 50.8 46.3 65.0 65.0 1.7 2.2 1.8 178.7 190.6 0.00 0.0000000 66.6
2021-10-21 20:35:00 65.0 51.7 46.8 65.0 65.0 1.3 1.9 1.2 83.5 136.7 0.00 0.0000000 66.6
2021-10-21 20:40:00 65.2 51.8 47.0 65.2 65.2 1.0 1.7 1.2 148.6 129.6 0.00 0.0000000 66.5
2021-10-21 20:45:00 65.1 52.0 47.0 65.1 65.1 1.3 1.3 1.0 154.7 153.6 0.00 0.0000000 66.5
2021-10-21 20:50:00 64.9 52.9 47.2 64.9 64.9 2.2 2.2 1.4 127.2 123.6 0.00 0.0000000 66.5
2021-10-21 20:55:00 65.0 52.9 47.4 65.0 65.0 1.9 2.4 2.1 122.9 113.2 0.00 0.0000000 66.5
2021-10-21 21:00:00 64.9 54.1 47.9 64.9 64.9 0.8 2.1 1.3 125.5 123.0 0.00 0.0000000 66.4
2021-10-21 21:05:00 64.9 56.2 48.9 64.9 64.9 0.0 0.8 0.1 89.8 105.1 0.00 0.0000000 66.4
2021-10-21 21:10:00 64.7 56.2 48.7 64.7 64.7 0.0 1.3 0.7 111.9 101.5 0.00 0.0000000 66.3
2021-10-21 21:15:00 64.9 56.5 49.1 64.9 64.9 1.2 1.3 0.3 106.1 109.2 0.00 0.0000000 66.3
2021-10-21 21:20:00 65.1 55.1 48.6 65.1 65.1 1.3 1.9 1.4 101.6 108.2 0.00 0.0000000 66.3
2021-10-21 21:25:00 63.2 56.6 47.5 63.2 63.2 1.7 1.7 0.7 273.8 237.6 0.00 0.0000000 66.3
2021-10-21 21:30:00 62.3 60.4 48.5 62.3 62.3 0.0 1.7 0.8 44.3 283.4 0.00 0.0000000 66.2
2021-10-21 21:35:00 62.5 60.4 48.6 62.5 62.5 1.9 2.1 1.4 114.7 86.0 0.00 0.0000000 66.2
2021-10-21 21:40:00 62.7 61.3 49.2 62.7 62.7 2.8 3.8 2.6 125.6 120.5 0.00 0.0000000 66.1
2021-10-21 21:45:00 62.9 60.5 49.0 62.9 62.9 3.1 3.5 2.9 135.2 135.4 0.00 0.0000000 66.1
2021-10-21 21:50:00 62.7 63.2 50.0 62.7 62.7 3.5 4.0 3.2 139.1 141.8 0.00 0.0000000 66.1
2021-10-21 21:55:00 62.5 63.3 49.9 62.5 62.5 3.5 3.7 3.5 146.9 142.5 0.00 0.0000000 66.0
2021-10-21 22:00:00 62.2 65.7 50.6 62.2 62.2 3.8 4.0 3.7 158.3 151.2 0.00 0.0000000 66.0
2021-10-21 22:05:00 62.1 64.4 49.9 62.1 62.1 4.4 4.4 4.0 151.5 149.7 0.00 0.0000000 66.0
2021-10-21 22:10:00 61.7 65.2 49.9 61.7 61.7 4.2 4.6 4.1 144.8 146.7 0.00 0.0000000 66.0
2021-10-21 22:15:00 61.8 66.1 50.3 61.8 61.8 4.0 4.6 4.2 142.6 145.1 0.00 0.0000000 65.9
2021-10-21 22:20:00 62.1 66.7 50.8 62.1 62.1 4.0 4.9 4.2 141.4 148.6 0.00 0.0000000 65.9
2021-10-21 22:25:00 61.9 67.3 50.9 61.9 61.9 4.4 5.6 4.3 138.0 145.0 0.00 0.0000000 65.9
2021-10-21 22:30:00 61.7 67.8 51.0 61.7 61.7 4.4 4.9 4.3 140.3 150.3 0.00 0.0000000 65.8
2021-10-21 22:35:00 61.6 68.4 51.0 61.6 61.6 4.2 4.9 4.3 158.3 149.1 0.00 0.0000000 65.8
2021-10-21 22:40:00 60.9 69.8 51.0 60.9 60.9 4.6 5.1 4.3 145.5 158.1 0.00 0.0000000 65.8
2021-10-21 22:45:00 60.5 70.0 50.7 60.5 60.5 4.6 5.3 4.5 144.3 155.6 0.00 0.0000000 65.8
2021-10-21 22:50:00 60.0 72.5 51.2 60.0 60.0 5.3 5.3 4.5 162.6 159.5 0.00 0.0000000 65.7
2021-10-21 22:55:00 59.5 72.8 50.7 59.5 59.5 4.6 5.6 4.8 157.9 161.7 0.00 0.0000000 65.7
2021-10-21 23:00:00 59.0 73.6 50.6 59.0 59.0 4.4 4.9 4.6 163.0 159.8 0.00 0.0000000 65.7
2021-10-21 23:05:00 59.0 74.3 50.8 59.0 59.0 4.6 6.0 4.6 140.1 155.4 0.00 0.0000000 65.6
2021-10-21 23:10:00 59.7 74.6 51.6 59.7 59.7 6.3 6.3 5.2 165.9 148.2 0.00 0.0000000 65.6
2021-10-21 23:15:00 60.4 73.5 51.9 60.4 60.4 5.8 7.1 6.0 135.2 146.6 0.00 0.0000000 65.6
2021-10-21 23:20:00 60.5 72.7 51.7 60.5 60.5 5.5 6.3 5.7 156.7 145.0 0.00 0.0000000 65.6
2021-10-21 23:25:00 60.2 74.0 51.9 60.2 60.2 4.4 5.8 5.1 159.0 156.1 0.00 0.0000000 65.6
2021-10-21 23:30:00 59.4 75.4 51.6 59.4 59.4 5.5 5.6 5.2 159.6 162.7 0.00 0.0000000 65.5
2021-10-21 23:35:00 59.0 75.5 51.3 59.0 59.0 4.7 5.6 5.0 137.3 151.3 0.00 0.0000000 65.5
2021-10-21 23:40:00 58.7 76.2 51.3 58.7 58.7 4.7 5.5 4.6 146.5 147.7 0.00 0.0000000 65.5
2021-10-21 23:45:00 58.9 76.6 51.6 58.9 58.9 4.0 4.7 4.2 154.6 149.5 0.00 0.0000000 65.5
2021-10-21 23:50:00 58.7 77.4 51.7 58.7 58.7 4.0 4.7 4.0 155.4 151.7 0.00 0.0000000 65.4
2021-10-21 23:55:00 58.6 78.0 51.8 58.6 58.6 3.8 4.7 3.9 150.5 149.8 0.00 0.0000000 65.4
2021-10-22 00:00:00 59.1 78.3 52.4 59.1 59.1 4.2 5.1 4.2 141.4 144.8 0.00 0.0000000 65.4
2021-10-22 00:05:00 59.4 78.9 52.9 59.4 59.4 4.4 4.7 4.4 144.5 143.8 0.00 0.0000000 65.4
2021-10-22 00:10:00 59.6 78.9 53.0 59.6 59.6 4.0 4.4 3.9 155.9 148.7 0.00 0.0000000 65.4
2021-10-22 00:15:00 59.6 78.5 52.9 59.6 59.6 3.7 4.4 3.7 156.2 157.6 0.00 0.0000000 65.4
2021-10-22 00:20:00 59.1 79.2 52.7 59.1 59.1 3.5 4.4 3.9 191.3 176.3 0.00 0.0000000 65.4
2021-10-22 00:25:00 58.9 79.7 52.6 58.9 58.9 3.8 3.8 3.5 167.5 180.4 0.00 0.0000000 65.3
2021-10-22 00:30:00 58.1 80.7 52.2 58.1 58.1 3.5 3.8 3.2 190.3 170.4 0.00 0.0000000 65.3
2021-10-22 00:35:00 58.1 82.4 52.8 58.1 58.1 2.8 3.5 3.0 212.3 214.6 0.00 0.0000000 65.3
2021-10-22 00:40:00 58.1 80.9 52.3 58.1 58.1 2.1 2.8 2.3 247.9 210.8 0.00 0.0000000 65.3
2021-10-22 00:45:00 56.2 81.1 50.5 56.2 56.2 3.3 4.6 3.7 278.1 253.3 0.00 0.0000000 65.3
2021-10-22 00:50:00 55.3 83.7 50.4 55.3 55.3 2.6 3.3 2.5 291.8 292.1 0.00 0.0000000 65.2
2021-10-22 00:55:00 55.8 85.5 51.5 55.8 55.8 3.0 3.7 3.1 305.9 300.9 0.00 0.0000000 65.2
2021-10-22 01:00:00 56.1 85.0 51.7 56.1 56.1 2.8 3.5 3.2 310.8 300.7 0.00 0.0000000 65.2
2021-10-22 01:05:00 56.4 84.1 51.7 56.4 56.4 3.0 3.0 2.6 279.4 296.2 0.00 0.0000000 65.2
2021-10-22 01:10:00 55.9 83.3 50.9 55.9 55.9 3.0 3.5 3.2 273.3 272.3 0.00 0.0000000 65.2
2021-10-22 01:15:00 55.1 83.3 50.2 55.1 55.1 3.3 3.3 2.9 249.3 260.0 0.00 0.0000000 65.2
2021-10-22 01:20:00 54.5 83.8 49.7 54.5 54.5 3.5 3.7 3.2 257.6 248.8 0.00 0.0000000 65.1
2021-10-22 01:25:00 54.2 84.5 49.6 54.2 54.2 1.9 3.5 2.3 267.6 255.2 0.00 0.0000000 65.1
2021-10-22 01:30:00 53.8 84.9 49.4 53.8 53.8 2.2 3.1 2.3 251.2 263.2 0.00 0.0000000 65.1
2021-10-22 01:35:00 53.4 84.9 48.9 53.4 53.4 1.2 2.4 1.9 264.2 269.3 0.00 0.0000000 65.0
2021-10-22 01:40:00 53.2 84.1 48.5 53.2 53.2 3.1 3.1 1.7 243.3 239.2 0.00 0.0000000 65.0
2021-10-22 01:45:00 52.6 81.0 46.9 52.6 52.6 4.2 4.2 3.6 267.7 248.8 0.00 0.0000000 65.0
2021-10-22 01:50:00 51.3 79.4 45.1 51.3 51.3 5.8 6.2 4.5 259.4 274.4 0.00 0.0000000 65.0
2021-10-22 01:55:00 50.9 76.8 43.9 50.9 50.9 3.8 6.7 5.5 254.0 266.4 0.00 0.0000000 65.0
2021-10-22 02:00:00 50.8 77.1 43.9 50.8 50.8 4.7 4.7 4.2 260.2 264.4 0.00 0.0000000 64.9
2021-10-22 02:05:00 50.4 77.3 43.5 50.4 50.4 4.2 5.6 4.3 257.7 265.3 0.00 0.0000000 64.9
2021-10-22 02:10:00 50.2 76.7 43.1 50.2 50.2 4.2 4.9 4.2 264.9 261.4 0.00 0.0000000 64.9
2021-10-22 02:15:00 49.9 76.4 42.8 48.6 49.9 4.2 5.3 4.4 255.9 252.6 0.00 0.0000000 64.9
2021-10-22 02:20:00 49.7 75.1 42.1 47.7 49.7 5.3 5.6 4.8 266.5 257.6 0.00 0.0000000 64.8
2021-10-22 02:25:00 49.7 71.4 40.8 47.8 49.7 5.1 6.0 4.8 259.2 258.6 0.00 0.0000000 64.8
2021-10-22 02:30:00 50.1 66.4 39.4 50.1 50.1 4.6 6.0 4.9 271.5 269.7 0.00 0.0000000 64.8
2021-10-22 02:35:00 49.9 66.0 39.0 47.9 49.9 5.5 6.0 5.2 289.4 270.5 0.00 0.0000000 64.7
2021-10-22 02:40:00 49.7 66.0 38.8 48.2 49.7 4.4 6.5 5.5 274.9 278.3 0.00 0.0000000 64.7
2021-10-22 02:45:00 49.9 62.9 37.8 48.3 49.9 4.7 5.5 4.6 287.7 281.4 0.00 0.0000000 64.7
2021-10-22 02:50:00 49.8 61.0 36.9 48.3 49.8 4.6 5.8 4.9 263.7 278.6 0.00 0.0000000 64.7
2021-10-22 02:55:00 50.6 58.6 36.6 50.6 50.6 4.4 5.3 4.4 255.5 273.0 0.00 0.0000000 64.6
2021-10-22 03:00:00 50.5 59.3 36.8 50.5 50.5 4.2 6.0 4.9 279.0 285.3 0.00 0.0000000 64.6
2021-10-22 03:05:00 50.8 57.7 36.4 50.8 50.8 5.6 5.6 4.6 291.9 290.0 0.00 0.0000000 64.6
2021-10-22 03:10:00 50.6 58.1 36.4 50.6 50.6 4.7 6.0 5.4 294.0 298.6 0.00 0.0000000 64.5
2021-10-22 03:15:00 50.3 58.0 36.1 50.3 50.3 4.6 5.3 4.2 276.0 298.8 0.00 0.0000000 64.5
2021-10-22 03:20:00 50.1 56.9 35.5 50.1 50.1 2.4 4.2 3.3 245.9 275.2 0.00 0.0000000 64.5
2021-10-22 03:25:00 50.0 56.7 35.2 50.0 50.0 2.8 3.1 2.7 282.2 272.0 0.00 0.0000000 64.4
2021-10-22 03:30:00 49.8 57.1 35.3 49.8 49.8 1.3 3.3 2.9 312.1 292.4 0.00 0.0000000 64.4
2021-10-22 03:35:00 50.0 57.4 35.6 50.0 50.0 2.1 2.1 0.5 300.5 308.2 0.00 0.0000000 64.4
2021-10-22 03:40:00 50.4 56.2 35.3 50.4 50.4 1.9 2.1 1.5 299.0 290.9 0.00 0.0000000 64.3
2021-10-22 03:45:00 50.1 57.1 35.5 50.1 50.1 2.4 2.6 2.2 307.2 326.6 0.00 0.0000000 64.3
2021-10-22 03:50:00 49.7 58.2 35.6 48.5 49.7 4.0 4.0 2.7 274.9 289.3 0.00 0.0000000 64.3
2021-10-22 03:55:00 49.5 58.7 35.7 47.8 49.5 4.7 4.9 4.6 277.4 283.4 0.00 0.0000000 64.2
2021-10-22 04:00:00 48.6 60.3 35.4 46.8 48.6 4.6 4.9 4.3 289.6 275.0 0.00 0.0000000 64.2
2021-10-22 04:05:00 48.3 60.9 35.4 48.3 48.3 3.0 3.8 2.7 315.1 307.5 0.00 0.0000000 64.2
2021-10-22 04:10:00 49.0 58.9 35.3 48.1 49.0 3.5 4.7 3.9 320.4 313.4 0.00 0.0000000 64.1
2021-10-22 04:15:00 48.8 58.5 34.9 48.0 48.8 3.3 4.0 3.6 305.1 312.0 0.00 0.0000000 64.1
2021-10-22 04:20:00 48.5 59.3 35.0 48.5 48.5 1.5 3.1 2.0 324.1 296.8 0.00 0.0000000 64.1
2021-10-22 04:25:00 48.6 59.0 34.9 47.9 48.6 3.1 3.5 2.6 284.6 305.7 0.00 0.0000000 64.0
2021-10-22 04:30:00 48.2 60.3 35.0 46.6 48.2 4.2 4.4 4.1 306.5 297.4 0.00 0.0000000 64.0
2021-10-22 04:35:00 47.8 60.0 34.6 46.3 47.8 4.0 4.6 4.1 311.8 314.9 0.00 0.0000000 63.9

Data is courtesy of the NM Climate Center. DO NOT USE IN LEGAL PROCEEDINGS.